Little Elm, Texas
Current Conditions -  °F | °C
As of 7:51 AM on Wednesday 28 Jan 2015 (Local Time) from KADS Reporting Station
Clear Clear  
Wind Chill: 54°   Ceiling: Unl
Heat Index: 54°   Visibility: 15mi
Dew Point: 41°   Wind: 7mph
Humidity: 62%   Direction: 130°SE
Pressure: 30.12"   Gusts: NA
Location:  33.16°N, 96.93°W
Report Text: KADS 281351Z 13006KT 15SM SKC 12/05 A3012
Loading
Personal Weather Stations






























Interactive Weather Map New forecast layout! Learn more

10-Day Weather Forecast

Advertisements
Track Severe Weather on mobile